Time;durP1;ratioP1;P1;durP2;ratioP2;P2;SDS_P1;SDS_P2;PMS_P1;PMS_P2;Temp;Humidity;BMP_temperature;BMP_pressure;BME280_temperature;BME280_humidity;BME280_pressure;Samples;Min_cycle;Max_cycle;Signal;HPM_P1;HPM_P2
2022/04/08 00:01:55;;;;;;;4.63;0.60;;;;;;;;;;5076480;28;20052;-84
2022/04/08 00:04:21;;;;;;;1.58;0.50;;;;;;;;;;5075732;28;20402;-86
2022/04/08 00:06:46;;;;;;;1.25;0.50;;;;;;;;;;5084971;28;20037;-83
2022/04/08 00:09:13;;;;;;;0.90;0.30;;;;;;;;;;5087611;28;20494;-83
2022/04/08 00:11:38;;;;;;;1.52;0.40;;;;;;;;;;5083352;28;20119;-84
2022/04/08 00:14:05;;;;;;;1.98;0.40;;;;;;;;;;5076104;28;20117;-87
2022/04/08 00:16:31;;;;;;;1.27;0.20;;;;;;;;;;5074583;28;20149;-85
2022/04/08 00:18:57;;;;;;;1.80;0.40;;;;;;;;;;5074651;28;20475;-83
2022/04/08 00:21:26;;;;;;;0.82;0.38;;;;;;;;;;5074132;28;20032;-84
2022/04/08 00:23:52;;;;;;;0.65;0.20;;;;;;;;;;5075300;28;20059;-85
2022/04/08 00:26:18;;;;;;;0.63;0.28;;;;;;;;;;5068589;28;20082;-82
2022/04/08 00:28:45;;;;;;;1.58;0.50;;;;;;;;;;5073922;28;20075;-83
2022/04/08 00:31:11;;;;;;;0.88;0.40;;;;;;;;;;5075777;28;20012;-83
2022/04/08 00:33:37;;;;;;;0.60;0.30;;;;;;;;;;5074905;28;20048;-83
2022/04/08 00:36:04;;;;;;;0.57;0.30;;;;;;;;;;5075046;28;20021;-85
2022/04/08 00:38:30;;;;;;;1.67;0.32;;;;;;;;;;5074472;28;20035;-85
2022/04/08 00:40:56;;;;;;;0.85;0.30;;;;;;;;;;5073885;28;20025;-85
2022/04/08 00:43:32;;;;;;;1.45;0.40;;;;;;;;;;5075011;28;20494;-83
2022/04/08 00:45:58;;;;;;;1.23;0.40;;;;;;;;;;5074491;28;20425;-82
2022/04/08 00:48:24;;;;;;;2.22;0.40;;;;;;;;;;5074642;28;20066;-86
2022/04/08 00:50:50;;;;;;;0.80;0.30;;;;;;;;;;5075033;28;20020;-86
2022/04/08 00:53:16;;;;;;;0.60;0.30;;;;;;;;;;5074308;28;20112;-84
2022/04/08 00:55:42;;;;;;;0.70;0.30;;;;;;;;;;5076022;28;20067;-87
2022/04/08 00:58:08;;;;;;;1.48;0.50;;;;;;;;;;5074161;28;20059;-86
2022/04/08 01:00:36;;;;;;;0.93;0.30;;;;;;;;;;5075553;28;20407;-86
2022/04/08 01:03:02;;;;;;;0.73;0.32;;;;;;;;;;5074204;28;20474;-82
2022/04/08 01:05:28;;;;;;;2.17;0.40;;;;;;;;;;5074439;28;20203;-87
2022/04/08 01:07:57;;;;;;;0.85;0.40;;;;;;;;;;5074603;28;20024;-84
2022/04/08 01:10:23;;;;;;;0.50;0.30;;;;;;;;;;5074276;28;20020;-87
2022/04/08 01:12:49;;;;;;;1.10;0.40;;;;;;;;;;5075075;28;20067;-84
2022/04/08 01:15:17;;;;;;;1.40;0.40;;;;;;;;;;5074232;28;20024;-84
2022/04/08 01:17:43;;;;;;;1.17;0.30;;;;;;;;;;5076676;28;20024;-85
2022/04/08 01:20:09;;;;;;;1.70;0.40;;;;;;;;;;5073111;28;20060;-82
2022/04/08 01:22:36;;;;;;;1.20;0.50;;;;;;;;;;5069391;28;20029;-84
2022/04/08 01:25:06;;;;;;;1.85;0.40;;;;;;;;;;5071631;28;20581;-82
2022/04/08 01:27:32;;;;;;;2.33;0.50;;;;;;;;;;5075699;28;20160;-84
2022/04/08 01:29:58;;;;;;;2.78;0.68;;;;;;;;;;5074046;28;20020;-84
2022/04/08 01:32:24;;;;;;;2.17;0.60;;;;;;;;;;5074210;28;20036;-83
2022/04/08 01:34:52;;;;;;;3.30;0.60;;;;;;;;;;5073154;28;20110;-84
2022/04/08 01:37:18;;;;;;;3.33;0.60;;;;;;;;;;5072129;28;20045;-85
2022/04/08 01:39:44;;;;;;;2.55;0.70;;;;;;;;;;5077757;28;20029;-85
2022/04/08 01:42:10;;;;;;;1.58;0.65;;;;;;;;;;5077460;28;20038;-83
2022/04/08 01:44:37;;;;;;;3.20;0.60;;;;;;;;;;5077266;28;20078;-84
2022/04/08 01:47:04;;;;;;;2.78;0.70;;;;;;;;;;5078887;28;20482;-84
2022/04/08 01:49:30;;;;;;;2.63;0.82;;;;;;;;;;5078790;28;20025;-82
2022/04/08 01:51:56;;;;;;;3.53;0.90;;;;;;;;;;5074576;28;20032;-81
2022/04/08 01:54:22;;;;;;;3.67;0.93;;;;;;;;;;5076994;28;20039;-85
2022/04/08 01:56:48;;;;;;;4.95;0.80;;;;;;;;;;5077514;28;20463;-83
2022/04/08 01:59:15;;;;;;;2.95;0.80;;;;;;;;;;5076999;28;20552;-84
2022/04/08 02:01:41;;;;;;;5.45;1.20;;;;;;;;;;5067072;28;20037;-84
2022/04/08 02:04:07;;;;;;;5.38;1.08;;;;;;;;;;5079927;28;20500;-83
2022/04/08 02:06:34;;;;;;;3.15;1.13;;;;;;;;;;5078836;28;20059;-85
2022/04/08 02:09:01;;;;;;;3.95;1.42;;;;;;;;;;5076487;28;20024;-82
2022/04/08 02:11:27;;;;;;;2.92;1.10;;;;;;;;;;5078006;28;20070;-84
2022/04/08 02:13:53;;;;;;;3.75;0.90;;;;;;;;;;5076928;28;20079;-85
2022/04/08 02:16:19;;;;;;;4.07;0.68;;;;;;;;;;5077505;28;20021;-84
2022/04/08 02:18:45;;;;;;;3.15;0.98;;;;;;;;;;5077279;28;20025;-85
2022/04/08 02:21:11;;;;;;;5.32;0.90;;;;;;;;;;5078165;28;20138;-83
2022/04/08 02:23:37;;;;;;;2.65;0.85;;;;;;;;;;5076504;28;20020;-82
2022/04/08 02:26:05;;;;;;;2.22;0.70;;;;;;;;;;5076683;28;20402;-84
2022/04/08 02:28:33;;;;;;;3.22;1.10;;;;;;;;;;5071102;28;20071;-82
2022/04/08 02:30:59;;;;;;;3.50;1.10;;;;;;;;;;5076472;28;20009;-83
2022/04/08 02:33:26;;;;;;;5.25;1.10;;;;;;;;;;5077937;28;20497;-83
2022/04/08 02:35:52;;;;;;;2.53;0.85;;;;;;;;;;5076968;28;20036;-86
2022/04/08 02:38:18;;;;;;;5.03;1.00;;;;;;;;;;5078319;28;20407;-83
2022/04/08 02:40:45;;;;;;;3.47;0.90;;;;;;;;;;5075262;28;20442;-84
2022/04/08 02:43:11;;;;;;;4.05;1.20;;;;;;;;;;5076389;28;20032;-86
2022/04/08 02:45:37;;;;;;;3.95;0.80;;;;;;;;;;5077832;28;20496;-85
2022/04/08 02:48:04;;;;;;;3.25;0.90;;;;;;;;;;5078311;28;20032;-83
2022/04/08 02:50:30;;;;;;;3.55;1.00;;;;;;;;;;5075329;28;20025;-84
2022/04/08 02:52:56;;;;;;;4.65;1.20;;;;;;;;;;5077807;28;20024;-85
2022/04/08 02:55:22;;;;;;;2.85;0.95;;;;;;;;;;5077657;28;20367;-83
2022/04/08 02:57:48;;;;;;;3.05;0.95;;;;;;;;;;5079334;28;20060;-84
2022/04/08 03:00:15;;;;;;;5.18;1.30;;;;;;;;;;5077347;28;20029;-83
2022/04/08 03:02:41;;;;;;;4.35;1.00;;;;;;;;;;5075571;28;20017;-83
2022/04/08 03:05:07;;;;;;;4.53;1.50;;;;;;;;;;5078420;28;20041;-84
2022/04/08 03:07:34;;;;;;;2.10;0.68;;;;;;;;;;5077533;28;20090;-84
2022/04/08 03:10:00;;;;;;;4.68;1.15;;;;;;;;;;5080168;28;20017;-84
2022/04/08 03:12:26;;;;;;;2.80;1.10;;;;;;;;;;5076718;28;20078;-85
2022/04/08 03:14:52;;;;;;;5.68;1.27;;;;;;;;;;5080243;28;20398;-86
2022/04/08 03:17:18;;;;;;;5.47;0.95;;;;;;;;;;5078093;28;20032;-84
2022/04/08 03:19:44;;;;;;;5.32;1.50;;;;;;;;;;5077432;28;20024;-85
2022/04/08 03:22:10;;;;;;;2.55;0.70;;;;;;;;;;5077819;28;20560;-85
2022/04/08 03:24:36;;;;;;;3.85;1.10;;;;;;;;;;5076796;28;20044;-84
2022/04/08 03:27:02;;;;;;;3.40;1.02;;;;;;;;;;5077704;28;20063;-84
2022/04/08 03:29:28;;;;;;;5.22;1.77;;;;;;;;;;5075620;28;20043;-85
2022/04/08 03:31:54;;;;;;;2.45;0.82;;;;;;;;;;5075222;28;20028;-83
2022/04/08 03:34:20;;;;;;;2.90;0.80;;;;;;;;;;5075788;28;20526;-83
2022/04/08 03:36:47;;;;;;;3.58;1.02;;;;;;;;;;5076869;28;20070;-84
2022/04/08 03:39:13;;;;;;;3.72;0.93;;;;;;;;;;5078257;28;20020;-84
2022/04/08 03:41:40;;;;;;;3.50;1.50;;;;;;;;;;5076940;28;20548;-85
2022/04/08 03:44:06;;;;;;;5.15;1.40;;;;;;;;;;5076655;28;20024;-83
2022/04/08 03:46:32;;;;;;;4.43;1.20;;;;;;;;;;5076015;28;20025;-83
2022/04/08 03:48:58;;;;;;;3.53;0.90;;;;;;;;;;5077728;28;20103;-83
2022/04/08 03:51:24;;;;;;;4.22;0.82;;;;;;;;;;5075886;28;20104;-82
2022/04/08 03:53:50;;;;;;;3.15;0.93;;;;;;;;;;5073097;28;20427;-85
2022/04/08 03:56:16;;;;;;;3.75;0.98;;;;;;;;;;5076085;28;20099;-84
2022/04/08 03:58:42;;;;;;;4.57;1.00;;;;;;;;;;5074289;28;20021;-82
2022/04/08 04:01:08;;;;;;;4.93;1.17;;;;;;;;;;5074456;28;20055;-84
2022/04/08 04:03:34;;;;;;;3.25;0.75;;;;;;;;;;5073086;28;20012;-84
2022/04/08 04:06:01;;;;;;;4.57;1.30;;;;;;;;;;5073860;28;20027;-85
2022/04/08 04:08:27;;;;;;;4.45;0.85;;;;;;;;;;5074108;28;20017;-84
2022/04/08 04:10:53;;;;;;;3.17;0.85;;;;;;;;;;5073966;28;20394;-84
2022/04/08 04:13:19;;;;;;;5.88;1.35;;;;;;;;;;5074167;28;20021;-83
2022/04/08 04:15:45;;;;;;;3.13;1.40;;;;;;;;;;5075892;28;20036;-83
2022/04/08 04:18:11;;;;;;;3.28;0.90;;;;;;;;;;5077899;28;20028;-83
2022/04/08 04:20:37;;;;;;;5.15;1.00;;;;;;;;;;5075649;28;20029;-83
2022/04/08 04:23:03;;;;;;;4.75;1.35;;;;;;;;;;5073590;28;20428;-83
2022/04/08 04:25:29;;;;;;;4.82;1.45;;;;;;;;;;5074770;28;20020;-83
2022/04/08 04:27:56;;;;;;;3.88;1.13;;;;;;;;;;5074356;28;20481;-82
2022/04/08 04:30:24;;;;;;;5.28;1.35;;;;;;;;;;5074703;28;20032;-84
2022/04/08 04:32:51;;;;;;;3.00;1.10;;;;;;;;;;5074078;28;20028;-84
2022/04/08 04:35:17;;;;;;;3.45;1.05;;;;;;;;;;5074447;28;20024;-84
2022/04/08 04:37:43;;;;;;;4.22;1.33;;;;;;;;;;5074614;28;20110;-84
2022/04/08 04:40:09;;;;;;;3.83;1.00;;;;;;;;;;5074934;28;20133;-85
2022/04/08 04:42:35;;;;;;;3.22;1.10;;;;;;;;;;5075193;28;20028;-83
2022/04/08 04:45:01;;;;;;;10.25;1.80;;;;;;;;;;5076073;28;20084;-87
2022/04/08 04:47:27;;;;;;;3.55;1.30;;;;;;;;;;5069430;28;20032;-85
2022/04/08 04:49:53;;;;;;;3.90;1.20;;;;;;;;;;5073996;28;20046;-83
2022/04/08 04:52:19;;;;;;;4.40;0.95;;;;;;;;;;5075749;28;20028;-86
2022/04/08 04:54:45;;;;;;;4.70;1.30;;;;;;;;;;5073106;28;20032;-85
2022/04/08 04:57:11;;;;;;;5.15;1.20;;;;;;;;;;5074585;28;20029;-87
2022/04/08 04:59:37;;;;;;;3.92;1.17;;;;;;;;;;5077139;28;20055;-85
2022/04/08 05:02:04;;;;;;;3.45;1.17;;;;;;;;;;5075102;28;20045;-85
2022/04/08 05:04:30;;;;;;;3.72;1.05;;;;;;;;;;5085388;28;20024;-85
2022/04/08 05:06:56;;;;;;;5.13;1.25;;;;;;;;;;5088490;28;20024;-83
2022/04/08 05:09:22;;;;;;;5.07;1.40;;;;;;;;;;5086184;28;20037;-84
2022/04/08 05:11:48;;;;;;;3.88;1.10;;;;;;;;;;5074906;28;20061;-87
2022/04/08 05:14:14;;;;;;;3.08;1.10;;;;;;;;;;5077181;28;20157;-85
2022/04/08 05:16:40;;;;;;;4.15;1.10;;;;;;;;;;5073784;28;20601;-86
2022/04/08 05:19:06;;;;;;;3.58;1.15;;;;;;;;;;5073864;28;20029;-84
2022/04/08 05:21:33;;;;;;;3.42;0.98;;;;;;;;;;5065573;28;20039;-85
2022/04/08 05:23:59;;;;;;;5.85;1.30;;;;;;;;;;5072922;28;20016;-84
2022/04/08 05:26:26;;;;;;;2.40;0.88;;;;;;;;;;5075222;28;20031;-84
2022/04/08 05:28:52;;;;;;;2.80;0.75;;;;;;;;;;5073858;28;20112;-85
2022/04/08 05:31:18;;;;;;;3.85;1.20;;;;;;;;;;5074410;28;20055;-85
2022/04/08 05:33:44;;;;;;;2.78;1.10;;;;;;;;;;5073604;28;20115;-84
2022/04/08 05:36:10;;;;;;;3.88;1.13;;;;;;;;;;5073049;28;20573;-85
2022/04/08 05:38:36;;;;;;;4.85;1.50;;;;;;;;;;5069742;28;20324;-85
2022/04/08 05:41:02;;;;;;;3.75;1.35;;;;;;;;;;5073185;28;20046;-83
2022/04/08 05:43:28;;;;;;;4.18;0.90;;;;;;;;;;5072658;28;20055;-86
2022/04/08 05:45:57;;;;;;;3.55;1.23;;;;;;;;;;5067280;28;20021;-84
2022/04/08 05:48:23;;;;;;;3.85;1.00;;;;;;;;;;5075674;28;20028;-85
2022/04/08 05:50:49;;;;;;;3.70;1.20;;;;;;;;;;5074587;28;20013;-85
2022/04/08 05:53:15;;;;;;;3.45;0.90;;;;;;;;;;5076130;28;20105;-84
2022/04/08 05:55:41;;;;;;;2.67;0.90;;;;;;;;;;5076511;28;20031;-85
2022/04/08 05:58:07;;;;;;;6.00;1.80;;;;;;;;;;5076318;28;20056;-86
2022/04/08 06:00:35;;;;;;;4.13;1.13;;;;;;;;;;5073947;28;20037;-83
2022/04/08 06:03:01;;;;;;;3.22;0.90;;;;;;;;;;5073200;28;20479;-85
2022/04/08 06:05:27;;;;;;;3.70;1.20;;;;;;;;;;5073265;28;20114;-84
2022/04/08 06:07:54;;;;;;;2.75;1.10;;;;;;;;;;5074758;28;20024;-83
2022/04/08 06:10:22;;;;;;;3.97;0.98;;;;;;;;;;5073324;28;20032;-83
2022/04/08 06:12:52;;;;;;;2.60;1.15;;;;;;;;;;5073104;28;20043;-85
2022/04/08 06:15:18;;;;;;;3.90;1.00;;;;;;;;;;5074278;28;20081;-85
2022/04/08 06:17:44;;;;;;;5.30;1.10;;;;;;;;;;5075369;28;20032;-84
2022/04/08 06:20:11;;;;;;;4.32;1.83;;;;;;;;;;5076774;28;20481;-84
2022/04/08 06:22:41;;;;;;;5.47;1.20;;;;;;;;;;5070097;28;20039;-84
2022/04/08 06:25:08;;;;;;;5.88;1.77;;;;;;;;;;5075089;28;20382;-84
2022/04/08 06:27:34;;;;;;;3.00;0.70;;;;;;;;;;5075607;28;20017;-84
2022/04/08 06:30:00;;;;;;;5.53;1.20;;;;;;;;;;5077259;28;20016;-85
2022/04/08 06:32:26;;;;;;;2.95;0.93;;;;;;;;;;5072012;28;20036;-84
2022/04/08 06:34:52;;;;;;;4.22;1.05;;;;;;;;;;5078635;28;20348;-86
2022/04/08 06:37:18;;;;;;;3.83;1.20;;;;;;;;;;5078792;28;20037;-83
2022/04/08 06:39:46;;;;;;;8.68;1.80;;;;;;;;;;5084427;28;20025;-84
2022/04/08 06:42:12;;;;;;;2.88;0.93;;;;;;;;;;5093599;28;20034;-84
2022/04/08 06:44:38;;;;;;;3.70;1.00;;;;;;;;;;5092283;28;20025;-85
2022/04/08 06:47:04;;;;;;;3.15;1.10;;;;;;;;;;5086285;28;20020;-85
2022/04/08 06:49:30;;;;;;;3.42;0.95;;;;;;;;;;5091954;28;20033;-83
2022/04/08 06:51:58;;;;;;;4.00;1.38;;;;;;;;;;5089812;28;20021;-85
2022/04/08 06:54:25;;;;;;;5.68;2.10;;;;;;;;;;5077957;28;20263;-86
2022/04/08 06:56:51;;;;;;;4.72;1.23;;;;;;;;;;5079981;28;20031;-84
2022/04/08 06:59:17;;;;;;;3.83;1.98;;;;;;;;;;5089416;28;20064;-85
2022/04/08 07:01:43;;;;;;;2.88;1.20;;;;;;;;;;5082760;28;20056;-85
2022/04/08 07:04:09;;;;;;;3.15;1.08;;;;;;;;;;5079663;28;20024;-86
2022/04/08 07:06:35;;;;;;;5.22;1.58;;;;;;;;;;5076359;28;20017;-85
2022/04/08 07:09:01;;;;;;;3.60;1.42;;;;;;;;;;5079340;28;20032;-83
2022/04/08 07:11:27;;;;;;;3.92;1.30;;;;;;;;;;5079277;28;20020;-84
2022/04/08 07:13:53;;;;;;;3.08;1.33;;;;;;;;;;5078037;28;20032;-85
2022/04/08 07:16:19;;;;;;;5.75;1.08;;;;;;;;;;5078899;28;20074;-85
2022/04/08 07:18:45;;;;;;;3.55;1.35;;;;;;;;;;5078919;28;20028;-85
2022/04/08 07:21:11;;;;;;;3.35;1.35;;;;;;;;;;5078045;28;20039;-86
2022/04/08 07:23:37;;;;;;;3.70;1.15;;;;;;;;;;5087354;28;20032;-84
2022/04/08 07:26:04;;;;;;;5.05;1.40;;;;;;;;;;5091070;28;20029;-84
2022/04/08 07:28:32;;;;;;;3.78;1.30;;;;;;;;;;5090704;28;20063;-85
2022/04/08 07:30:57;;;;;;;4.38;1.30;;;;;;;;;;5088653;28;20025;-84
2022/04/08 07:33:23;;;;;;;4.13;1.15;;;;;;;;;;5088433;28;20104;-85
2022/04/08 07:35:50;;;;;;;3.72;1.45;;;;;;;;;;5081198;28;20030;-85
2022/04/08 07:38:16;;;;;;;3.28;1.30;;;;;;;;;;5080216;28;20025;-85
2022/04/08 07:40:42;;;;;;;5.05;2.30;;;;;;;;;;5078788;28;20097;-86
2022/04/08 07:43:08;;;;;;;5.60;1.40;;;;;;;;;;5079588;28;20035;-86
2022/04/08 07:45:34;;;;;;;3.70;1.10;;;;;;;;;;5079400;28;20048;-85
2022/04/08 07:48:00;;;;;;;4.25;1.40;;;;;;;;;;5076921;28;20048;-86
2022/04/08 07:50:27;;;;;;;5.43;1.48;;;;;;;;;;5072609;28;20029;-86
2022/04/08 07:52:53;;;;;;;3.53;1.20;;;;;;;;;;5077685;28;20378;-84
2022/04/08 07:55:24;;;;;;;2.92;1.15;;;;;;;;;;5076404;28;20375;-86
2022/04/08 07:57:51;;;;;;;4.90;1.60;;;;;;;;;;5078430;28;20078;-84
2022/04/08 08:00:22;;;;;;;4.95;1.88;;;;;;;;;;5076757;28;20360;-86
2022/04/08 08:02:48;;;;;;;3.85;1.60;;;;;;;;;;5076548;28;20028;-85
2022/04/08 08:05:14;;;;;;;5.03;1.80;;;;;;;;;;5076967;28;20025;-86
2022/04/08 08:07:47;;;;;;;4.85;1.75;;;;;;;;;;5077779;28;20490;-85
2022/04/08 08:10:17;;;;;;;4.00;1.30;;;;;;;;;;5077217;28;20379;-85
2022/04/08 08:12:43;;;;;;;4.55;1.15;;;;;;;;;;5078664;28;20041;-86
2022/04/08 08:15:10;;;;;;;3.67;1.30;;;;;;;;;;5077532;28;20031;-83
2022/04/08 08:17:36;;;;;;;4.85;1.42;;;;;;;;;;5077612;28;20029;-82
2022/04/08 08:20:04;;;;;;;4.28;1.45;;;;;;;;;;5077005;28;20523;-82
2022/04/08 08:22:30;;;;;;;3.67;1.30;;;;;;;;;;5077221;28;20043;-84
2022/04/08 08:24:56;;;;;;;6.22;1.60;;;;;;;;;;5077196;28;20028;-82
2022/04/08 08:27:22;;;;;;;3.92;1.10;;;;;;;;;;5078978;28;20029;-83
2022/04/08 08:29:48;;;;;;;5.00;1.70;;;;;;;;;;5075919;28;20084;-83
2022/04/08 08:32:14;;;;;;;3.78;1.20;;;;;;;;;;5079671;28;20056;-82
2022/04/08 08:34:40;;;;;;;5.70;1.58;;;;;;;;;;5080179;28;20024;-82
2022/04/08 08:37:06;;;;;;;5.43;1.35;;;;;;;;;;5077576;28;20398;-84
2022/04/08 08:39:33;;;;;;;2.40;1.02;;;;;;;;;;5076905;28;20035;-82
2022/04/08 08:41:59;;;;;;;5.05;1.23;;;;;;;;;;5076210;28;20020;-83
2022/04/08 08:44:25;;;;;;;3.20;1.20;;;;;;;;;;5077944;28;20448;-83
2022/04/08 08:46:52;;;;;;;2.47;0.98;;;;;;;;;;5073680;28;20459;-85
2022/04/08 08:49:19;;;;;;;3.72;1.05;;;;;;;;;;5078179;28;20044;-83
2022/04/08 08:51:48;;;;;;;3.90;1.25;;;;;;;;;;5076841;28;20044;-82
2022/04/08 08:54:14;;;;;;;3.85;1.08;;;;;;;;;;5076482;28;20628;-85
2022/04/08 08:56:40;;;;;;;3.42;1.05;;;;;;;;;;5078149;28;20479;-84
2022/04/08 08:59:06;;;;;;;4.18;1.20;;;;;;;;;;5077579;28;20028;-81
2022/04/08 09:01:32;;;;;;;4.30;1.27;;;;;;;;;;5076775;28;20040;-85
2022/04/08 09:03:58;;;;;;;2.97;1.10;;;;;;;;;;5076587;28;20029;-86
2022/04/08 09:06:24;;;;;;;3.63;1.30;;;;;;;;;;5076340;28;20025;-84
2022/04/08 09:08:58;;;;;;;4.30;1.25;;;;;;;;;;5078546;28;20021;-84
2022/04/08 09:11:28;;;;;;;4.53;1.30;;;;;;;;;;5079819;28;20032;-84
2022/04/08 09:14:00;;;;;;;5.15;1.77;;;;;;;;;;5078752;28;20093;-85
2022/04/08 09:16:27;;;;;;;3.70;1.42;;;;;;;;;;5075104;28;20255;-85
2022/04/08 09:18:54;;;;;;;3.67;1.05;;;;;;;;;;5068023;28;20033;-84
2022/04/08 09:21:26;;;;;;;4.72;1.50;;;;;;;;;;5077730;28;20017;-85
2022/04/08 09:23:52;;;;;;;4.78;1.63;;;;;;;;;;5077503;28;20111;-84
2022/04/08 09:26:19;;;;;;;6.00;1.65;;;;;;;;;;5078114;28;20031;-85
2022/04/08 09:28:45;;;;;;;6.00;2.55;;;;;;;;;;5073989;28;20043;-85
2022/04/08 09:31:18;;;;;;;5.97;1.67;;;;;;;;;;5077457;28;20021;-86
2022/04/08 09:33:52;;;;;;;4.90;1.45;;;;;;;;;;5074818;28;20106;-86
2022/04/08 09:36:31;;;;;;;4.70;1.33;;;;;;;;;;5073847;28;20316;-86
2022/04/08 09:38:58;;;;;;;5.93;1.63;;;;;;;;;;5072285;28;20103;-84
2022/04/08 09:41:37;;;;;;;6.32;1.20;;;;;;;;;;5074425;28;20433;-86
2022/04/08 09:44:03;;;;;;;4.30;1.67;;;;;;;;;;5074563;28;20051;-86
2022/04/08 09:46:29;;;;;;;4.35;1.30;;;;;;;;;;5078926;28;20024;-86
2022/04/08 09:48:55;;;;;;;6.43;1.50;;;;;;;;;;5072327;28;20455;-85
2022/04/08 09:51:23;;;;;;;4.53;1.20;;;;;;;;;;5067343;28;20077;-85
2022/04/08 09:53:59;;;;;;;3.42;1.00;;;;;;;;;;5080363;28;20032;-85
2022/04/08 09:56:28;;;;;;;4.50;1.42;;;;;;;;;;5083462;28;20028;-85
2022/04/08 09:59:03;;;;;;;5.28;1.38;;;;;;;;;;5074695;28;20020;-86
2022/04/08 10:01:29;;;;;;;4.43;1.40;;;;;;;;;;5077690;28;20047;-86
2022/04/08 10:03:56;;;;;;;6.25;2.22;;;;;;;;;;5078898;28;20047;-83
2022/04/08 10:06:23;;;;;;;3.03;1.05;;;;;;;;;;5078260;28;20025;-85
2022/04/08 10:08:50;;;;;;;6.47;1.80;;;;;;;;;;5078329;28;20021;-86
2022/04/08 10:11:19;;;;;;;6.38;1.48;;;;;;;;;;5077846;28;20024;-86
2022/04/08 10:14:08;;;;;;;3.88;1.30;;;;;;;;;;5076978;28;20028;-85
2022/04/08 10:16:38;;;;;;;4.50;1.42;;;;;;;;;;5072151;28;20039;-85
2022/04/08 10:19:07;;;;;;;4.03;1.30;;;;;;;;;;5077559;28;20027;-85
2022/04/08 10:21:39;;;;;;;3.78;1.25;;;;;;;;;;5077619;28;20024;-87
2022/04/08 10:24:15;;;;;;;6.00;1.80;;;;;;;;;;5073264;28;20017;-86
2022/04/08 10:27:01;;;;;;;3.83;1.40;;;;;;;;;;5067981;28;20029;-86
2022/04/08 10:29:28;;;;;;;4.60;1.23;;;;;;;;;;5068090;28;20059;-87
2022/04/08 10:31:55;;;;;;;3.38;1.10;;;;;;;;;;5074965;28;20078;-85
2022/04/08 10:34:22;;;;;;;3.60;1.17;;;;;;;;;;5074186;28;20032;-86
2022/04/08 10:36:48;;;;;;;5.18;1.50;;;;;;;;;;5074748;28;20073;-86
2022/04/08 10:39:14;;;;;;;4.70;1.17;;;;;;;;;;5076228;28;20036;-85
2022/04/08 10:41:47;;;;;;;4.00;1.35;;;;;;;;;;5076773;28;20027;-86
2022/04/08 10:44:13;;;;;;;4.10;1.38;;;;;;;;;;5075179;28;20027;-85
2022/04/08 10:46:49;;;;;;;4.60;1.58;;;;;;;;;;5075147;28;20033;-85
2022/04/08 10:49:15;;;;;;;5.28;1.30;;;;;;;;;;5066472;28;20021;-86
2022/04/08 10:51:48;;;;;;;4.18;1.30;;;;;;;;;;5065759;28;20032;-86
2022/04/08 10:54:15;;;;;;;3.40;1.10;;;;;;;;;;5076017;28;20483;-86
2022/04/08 10:56:41;;;;;;;3.75;1.33;;;;;;;;;;5076807;28;20544;-85
2022/04/08 10:59:07;;;;;;;5.93;1.48;;;;;;;;;;5076733;28;20410;-86
2022/04/08 11:01:44;;;;;;;3.90;1.80;;;;;;;;;;5077366;28;20067;-86
2022/04/08 11:04:10;;;;;;;4.85;1.10;;;;;;;;;;5076667;28;20021;-86
2022/04/08 11:06:36;;;;;;;3.60;1.25;;;;;;;;;;5074855;28;20017;-86
2022/04/08 11:09:06;;;;;;;3.40;1.25;;;;;;;;;;5075910;28;20391;-86
2022/04/08 11:11:36;;;;;;;2.28;1.00;;;;;;;;;;5075662;28;20028;-86
2022/04/08 11:14:03;;;;;;;2.85;1.00;;;;;;;;;;5076529;28;20020;-86
2022/04/08 11:16:31;;;;;;;4.70;1.38;;;;;;;;;;5073694;28;20255;-86
2022/04/08 11:18:57;;;;;;;4.28;1.00;;;;;;;;;;5075975;28;20025;-86
2022/04/08 11:21:24;;;;;;;3.40;1.30;;;;;;;;;;5074293;28;20028;-86
2022/04/08 11:24:17;;;;;;;3.22;1.13;;;;;;;;;;5072946;28;20028;-86
2022/04/08 11:26:43;;;;;;;;;;;;;;;;;;5074659;28;20036;-86
2022/04/08 11:29:11;;;;;;;3.13;0.90;;;;;;;;;;5076365;28;19909;-84
2022/04/08 11:31:37;;;;;;;2.70;1.00;;;;;;;;;;5080160;28;20103;-86
2022/04/08 11:34:04;;;;;;;4.07;1.10;;;;;;;;;;5082655;28;20021;-86
2022/04/08 11:36:30;;;;;;;2.53;0.98;;;;;;;;;;5083297;28;20052;-85
2022/04/08 11:38:56;;;;;;;1.83;0.80;;;;;;;;;;5079495;28;20013;-84
2022/04/08 11:41:23;;;;;;;3.72;1.10;;;;;;;;;;5077141;28;20025;-86
2022/04/08 11:43:49;;;;;;;3.72;0.80;;;;;;;;;;5076945;28;20029;-85
2022/04/08 11:46:16;;;;;;;2.20;0.80;;;;;;;;;;5076097;28;20065;-85
2022/04/08 11:48:43;;;;;;;3.22;1.08;;;;;;;;;;5075711;28;20021;-86
2022/04/08 11:51:09;;;;;;;2.95;0.80;;;;;;;;;;5075645;28;20037;-83
2022/04/08 11:53:52;;;;;;;3.88;0.85;;;;;;;;;;5076252;28;20025;-80
2022/04/08 11:56:22;;;;;;;2.45;0.70;;;;;;;;;;5057141;28;20021;-83
2022/04/08 11:58:52;;;;;;;2.65;0.85;;;;;;;;;;5075800;28;20066;-84
2022/04/08 12:01:18;;;;;;;2.72;0.85;;;;;;;;;;5075968;28;20063;-85
2022/04/08 12:03:44;;;;;;;4.95;1.25;;;;;;;;;;5087948;28;20502;-84
2022/04/08 12:06:10;;;;;;;3.13;1.08;;;;;;;;;;5077015;28;20024;-84
2022/04/08 12:08:37;;;;;;;3.72;0.73;;;;;;;;;;5077246;28;20017;-84
2022/04/08 12:11:08;;;;;;;3.58;1.15;;;;;;;;;;5075849;28;20028;-84
2022/04/08 12:13:35;;;;;;;5.57;1.27;;;;;;;;;;5076380;28;20028;-84
2022/04/08 12:16:01;;;;;;;4.18;1.25;;;;;;;;;;5079338;28;20024;-82
2022/04/08 12:18:28;;;;;;;5.00;1.40;;;;;;;;;;5077371;28;20028;-82
2022/04/08 12:20:55;;;;;;;2.42;0.80;;;;;;;;;;5067930;28;20029;-81
2022/04/08 12:23:25;;;;;;;2.63;0.90;;;;;;;;;;5059910;28;20056;-82
2022/04/08 12:25:55;;;;;;;4.70;1.00;;;;;;;;;;5070596;28;20033;-81
2022/04/08 12:28:25;;;;;;;2.72;0.90;;;;;;;;;;5075022;28;20500;-82
2022/04/08 12:30:52;;;;;;;2.58;0.80;;;;;;;;;;5076299;28;20475;-82
2022/04/08 12:33:18;;;;;;;2.85;0.88;;;;;;;;;;5074045;28;20024;-82
2022/04/08 12:35:45;;;;;;;3.95;1.10;;;;;;;;;;5077935;28;20020;-83
2022/04/08 12:38:11;;;;;;;4.32;0.90;;;;;;;;;;5076982;28;20028;-81
2022/04/08 12:40:37;;;;;;;4.05;0.90;;;;;;;;;;5079518;28;20033;-81
2022/04/08 12:43:03;;;;;;;3.25;1.00;;;;;;;;;;5078477;28;20032;-81
2022/04/08 12:45:29;;;;;;;2.75;0.80;;;;;;;;;;5077592;28;20032;-82
2022/04/08 12:47:55;;;;;;;2.78;0.80;;;;;;;;;;5078856;28;20434;-81
2022/04/08 12:50:21;;;;;;;2.80;0.90;;;;;;;;;;5075653;28;20035;-82
2022/04/08 12:52:47;;;;;;;3.33;1.10;;;;;;;;;;5076592;28;20032;-81
2022/04/08 12:55:13;;;;;;;2.53;0.82;;;;;;;;;;5077231;28;20107;-80
2022/04/08 14:08:44;;;;;;;6.75;3.80;;;;;;;;;;5077571;28;20410;-84
2022/04/08 14:11:10;;;;;;;6.97;4.35;;;;;;;;;;5056905;28;20051;-79
2022/04/08 14:13:36;;;;;;;7.70;4.60;;;;;;;;;;5052541;28;20053;-84
2022/04/08 14:16:02;;;;;;;7.53;4.22;;;;;;;;;;5054105;28;20321;-83
2022/04/08 14:18:28;;;;;;;8.35;4.53;;;;;;;;;;5068821;28;20048;-81
2022/04/08 14:20:54;;;;;;;9.65;5.22;;;;;;;;;;5065771;28;20045;-83
2022/04/08 14:23:21;;;;;;;8.07;4.47;;;;;;;;;;5053398;28;20021;-80
2022/04/08 14:25:49;;;;;;;8.15;4.85;;;;;;;;;;5038098;28;20500;-84
2022/04/08 14:28:15;;;;;;;9.05;4.93;;;;;;;;;;5035896;28;20483;-82
2022/04/08 14:30:41;;;;;;;7.07;3.95;;;;;;;;;;5046126;28;20036;-84
2022/04/08 14:33:07;;;;;;;8.43;4.55;;;;;;;;;;5069767;28;20021;-83
2022/04/08 14:35:34;;;;;;;6.85;4.15;;;;;;;;;;5069017;28;20041;-83
2022/04/08 14:38:00;;;;;;;7.50;3.95;;;;;;;;;;5041013;28;20087;-83
2022/04/08 14:40:26;;;;;;;7.53;4.55;;;;;;;;;;5059266;28;20032;-84
2022/04/08 14:42:52;;;;;;;8.15;4.45;;;;;;;;;;5076026;28;20031;-80
2022/04/08 14:45:18;;;;;;;7.22;3.88;;;;;;;;;;5057132;28;20032;-80
2022/04/08 14:47:44;;;;;;;7.07;4.25;;;;;;;;;;5063774;28;20505;-81
2022/04/08 14:50:10;;;;;;;7.90;5.15;;;;;;;;;;5061533;28;20029;-82
2022/04/08 14:52:37;;;;;;;7.85;4.32;;;;;;;;;;5076870;28;20434;-81
2022/04/08 14:55:03;;;;;;;7.75;4.63;;;;;;;;;;5074364;28;20021;-82
2022/04/08 14:57:29;;;;;;;8.73;4.78;;;;;;;;;;5072624;28;20419;-80
2022/04/08 14:59:55;;;;;;;7.13;4.95;;;;;;;;;;5065394;28;20033;-83
2022/04/08 15:02:21;;;;;;;6.60;4.35;;;;;;;;;;5053244;28;20026;-80
2022/04/08 15:04:47;;;;;;;8.15;3.90;;;;;;;;;;5062010;28;20032;-80
2022/04/08 15:07:14;;;;;;;8.10;4.10;;;;;;;;;;5051577;28;20052;-81
2022/04/08 15:09:40;;;;;;;7.88;4.22;;;;;;;;;;5049029;28;20052;-80
2022/04/08 15:12:06;;;;;;;9.60;5.63;;;;;;;;;;5055796;28;20029;-81
2022/04/08 15:14:32;;;;;;;7.85;4.60;;;;;;;;;;5041461;28;20048;-82
2022/04/08 15:16:58;;;;;;;7.45;4.80;;;;;;;;;;5045990;28;20085;-83
2022/04/08 15:19:24;;;;;;;8.77;4.25;;;;;;;;;;5054850;28;20021;-82
2022/04/08 15:21:50;;;;;;;9.05;5.25;;;;;;;;;;5047672;28;20029;-81
2022/04/08 15:24:17;;;;;;;6.95;4.40;;;;;;;;;;5032876;28;20077;-85
2022/04/08 15:26:44;;;;;;;7.43;3.60;;;;;;;;;;5029649;28;20047;-82
2022/04/08 15:29:10;;;;;;;7.15;3.85;;;;;;;;;;5041754;28;20095;-85
2022/04/08 15:31:43;;;;;;;5.50;3.58;;;;;;;;;;5028781;28;20037;-82
2022/04/08 15:34:09;;;;;;;5.80;3.65;;;;;;;;;;5028597;28;20107;-83
2022/04/08 15:36:36;;;;;;;7.03;3.70;;;;;;;;;;5040245;28;20108;-83
2022/04/08 15:39:02;;;;;;;7.75;4.18;;;;;;;;;;5028545;28;20022;-81
2022/04/08 15:41:28;;;;;;;6.18;3.72;;;;;;;;;;5030937;28;20022;-82
2022/04/08 15:43:54;;;;;;;5.93;3.10;;;;;;;;;;5052443;28;20108;-82
2022/04/08 15:46:20;;;;;;;7.03;3.38;;;;;;;;;;5057772;28;20144;-81
2022/04/08 15:48:46;;;;;;;6.82;3.28;;;;;;;;;;5022968;28;20024;-84
2022/04/08 15:51:12;;;;;;;6.82;4.07;;;;;;;;;;5044785;28;20025;-80
2022/04/08 15:53:38;;;;;;;5.78;3.55;;;;;;;;;;5053725;28;20029;-82